Terminal Aerodrome Forecast
Issued by NWS Indianapolis, IN

Home | Current Version | Previous Version | Text Only | Print | Product List | Glossary On
Versions: 1 2 3 4 5 6 7 8 9 10 11 12 13 14 15 16 17 18 19 20 21 22 23 24 25 26 27 28 29 30 31 32 33 34 35
000
FTUS43 KIND 282028 AAA
TAFIND
TAF AMD
KIND 282028Z 2820/2924 VRB03KT P6SM SCT040 BKN250
     FM282200 VRB03KT P6SM VCTS SCT040CB
     FM290000 VRB03KT P6SM SCT040 BKN250
     FM291000 23004KT 5SM BR SCT040 BKN150
     FM291500 24009KT P6SM VCTS BKN040CB
     FM292200 26006KT P6SM BKN100 OVC250=

USA.gov is the U.S. government's official web portal to all federal, state and local government web resources and services.